KSAF/SAF METAR and TAF weather

Enter ICAO airport designator
Station Type Date Time Source
KSAF METAR 2020/09/24 10:53 UTC NOAA

KSAF 241053Z AUTO 36003KT 10SM CLR 10/01 A3024 RMK AO2 SLP146 T01000011


Station Type Date Time Source
KSAF Decoded METAR 2020/09/24 10:53 UTC NOAA

SANTA FE COUNTY MUNICIPAL, NM, United States (KSAF) 35-37N 106-05W 1930M
Sep 24, 2020 - 06:53 AM EDT / 2020.09.24 1053 UTC
Wind: from the N (360 degrees) at 3 MPH (3 KT):0
Visibility: 10 mile(s):0
Sky conditions: clear
Temperature: 50.0 F (10.0 C)
Dew Point: 34.0 F (1.1 C)
Relative Humidity: 53%
Pressure (altimeter): 30.24 in. Hg (1024 hPa)
ob: KSAF 241053Z AUTO 36003KT 10SM CLR 10/01 A3024 RMK AO2 SLP146 T01000011
cycle: 11

Station Type Date Time Source
KSAF TAF 2020/09/24 06:24 UTC NOAA

TAF KSAF 240521Z 2406/2506 06006KT P6SM SKC
FM240900 36009KT P6SM SKC
FM241800 26009KT P6SM FEW100
FM250200 33006KT P6SM SKC

Example: see airport list